Pelham, New Hampshire
Current Conditions -  °F | °C
As of 3:54 PM on Monday 24 Nov 2014 (Local Time) from KLWM Reporting Station
Scattered Clouds Scattered Clouds  
Wind Chill: 65°   Ceiling: Unl
Heat Index: 65°   Visibility: 10mi
Dew Point: 60°   Wind: 12mph
Humidity: 84%   Direction: 200°SSW
Pressure: 29.57"   Gusts: 26mph
Location:  42.73°N, 71.32°W
Report Text: KLWM 242054Z 20010G23KT 10SM FEW029 SCT036 18/16 A2957 RMK AO2 SLP014 60000 T01830156 56020
Loading
Personal Weather Stations






























Interactive Weather Map New forecast layout! Learn more

10-Day Weather Forecast

Advertisements
Track Severe Weather on mobile